Time;durP1;ratioP1;P1;durP2;ratioP2;P2;SDS_P1;SDS_P2;PMS_P1;PMS_P2;Temp;Humidity;BMP_temperature;BMP_pressure;BME280_temperature;BME280_humidity;BME280_pressure;Samples;Min_cycle;Max_cycle;Signal;HPM_P1;HPM_P2
2024/03/16 00:01:34;;;;;;;48.72;8.27;;;10.60;99.90;;;;;;10524798;28;20491;-53
2024/03/16 00:06:37;;;;;;;27.33;4.35;;;10.60;99.90;;;;;;10524512;28;20048;-55
2024/03/16 00:11:39;;;;;;;15.35;2.65;;;10.60;99.90;;;;;;10512178;28;20787;-52
2024/03/16 00:16:41;;;;;;;7.83;2.47;;;10.80;99.90;;;;;;10517285;28;20407;-52
2024/03/16 00:21:43;;;;;;;20.65;2.90;;;10.30;99.90;;;;;;10513400;28;20415;-54
2024/03/16 00:26:45;;;;;;;8.33;2.10;;;10.20;99.90;;;;;;10518673;28;20786;-50
2024/03/16 00:31:48;;;;;;;11.33;2.00;;;10.10;99.90;;;;;;10547634;27;20048;-54
2024/03/16 00:36:50;;;;;;;;;;;10.20;99.90;;;;;;10536498;27;20047;-55
2024/03/16 00:41:53;;;;;;;17.48;2.60;;;10.20;99.90;;;;;;10537499;28;20154;-54
2024/03/16 00:46:55;;;;;;;;;;;10.30;99.90;;;;;;10519400;27;20039;-55
2024/03/16 00:51:58;;;;;;;8.73;3.03;;;10.20;99.90;;;;;;10537001;27;19926;-55
2024/03/16 00:57:00;;;;;;;9.57;2.53;;;9.90;99.90;;;;;;10518990;28;20055;-53
2024/03/16 01:02:04;;;;;;;12.57;2.92;;;10.00;99.90;;;;;;10520649;28;20043;-55
2024/03/16 01:07:06;;;;;;;12.55;3.42;;;9.70;99.90;;;;;;10522750;27;20043;-54
2024/03/16 01:12:08;;;;;;;14.73;3.28;;;9.80;99.90;;;;;;10521802;28;20066;-52
2024/03/16 01:17:11;;;;;;;13.75;3.10;;;9.70;99.90;;;;;;10524439;28;20611;-52
2024/03/16 01:22:13;;;;;;;15.00;2.55;;;9.70;99.90;;;;;;10528341;27;20108;-55
2024/03/16 01:27:15;;;;;;;13.80;2.67;;;9.60;99.90;;;;;;10549542;27;20791;-54
2024/03/16 01:32:17;;;;;;;18.08;3.17;;;9.30;99.90;;;;;;10530399;27;20077;-54
2024/03/16 01:37:20;;;;;;;9.98;2.28;;;9.40;99.90;;;;;;10530921;27;20055;-56
2024/03/16 01:42:22;;;;;;;17.63;2.42;;;9.40;99.90;;;;;;10515183;28;20861;-54
2024/03/16 01:47:25;;;;;;;10.37;1.70;;;9.90;99.90;;;;;;10516273;27;20048;-55
2024/03/16 01:52:27;;;;;;;17.30;3.80;;;9.90;99.90;;;;;;10504030;28;20905;-53
2024/03/16 01:57:29;;;;;;;5.97;1.57;;;9.80;99.90;;;;;;10511379;27;20050;-52
2024/03/16 02:02:32;;;;;;;6.93;1.58;;;9.70;99.90;;;;;;10539160;27;20078;-52
2024/03/16 02:07:36;;;;;;;11.82;1.17;;;9.80;99.90;;;;;;10515213;28;20659;-50
2024/03/16 02:12:38;;;;;;;8.32;1.00;;;9.40;99.90;;;;;;10510227;27;20055;-54
2024/03/16 02:17:41;;;;;;;8.20;1.00;;;9.30;99.90;;;;;;10511745;28;20079;-55
2024/03/16 02:22:43;;;;;;;19.75;1.35;;;9.60;99.90;;;;;;10512838;27;20059;-54
2024/03/16 02:27:45;;;;;;;11.00;1.10;;;9.80;99.90;;;;;;10506059;28;20052;-51
2024/03/16 02:32:47;;;;;;;9.95;0.82;;;9.40;99.90;;;;;;10510600;27;20077;-55
2024/03/16 02:37:49;;;;;;;15.07;1.92;;;9.10;99.90;;;;;;10509730;28;20138;-55
2024/03/16 02:42:51;;;;;;;10.80;1.02;;;9.00;99.90;;;;;;10510910;28;20051;-53
2024/03/16 02:47:54;;;;;;;19.73;1.75;;;9.40;99.90;;;;;;10527076;28;20055;-54
2024/03/16 02:52:56;;;;;;;5.55;0.98;;;9.50;99.90;;;;;;10505737;27;20753;-53
2024/03/16 02:57:58;;;;;;;2.53;0.35;;;9.70;99.90;;;;;;10507850;28;20052;-52
2024/03/16 03:03:01;;;;;;;3.40;0.57;;;9.40;99.90;;;;;;10508579;28;20055;-54
2024/03/16 03:08:04;;;;;;;0.80;0.40;;;9.50;99.90;;;;;;10525446;27;20217;-55
2024/03/16 03:13:06;;;;;;;18.58;1.20;;;9.60;99.90;;;;;;10508083;28;20063;-53
2024/03/16 03:18:08;;;;;;;8.90;0.77;;;9.50;99.90;;;;;;10506731;28;20086;-53
2024/03/16 03:23:11;;;;;;;14.13;1.83;;;9.60;99.90;;;;;;10513347;28;20055;-51
2024/03/16 03:28:14;;;;;;;8.13;1.23;;;9.30;99.90;;;;;;10515492;27;20117;-50
2024/03/16 03:33:16;;;;;;;9.85;0.82;;;9.30;99.90;;;;;;10510260;28;20205;-54
2024/03/16 03:38:19;;;;;;;0.10;0.10;;;8.80;99.90;;;;;;10513611;27;20036;-53
2024/03/16 03:43:22;;;;;;;0.10;0.10;;;8.60;99.90;;;;;;10513390;28;20423;-54
2024/03/16 03:53:41;;;;;;;0.10;0.10;;;9.30;99.90;;;;;;10517206;28;20056;-54
2024/03/16 04:15:34;;;;;;;0.20;0.20;;;9.20;99.90;;;;;;10552898;27;20254;-53
2024/03/16 04:20:36;;;;;;;0.17;0.17;;;9.10;99.90;;;;;;10520172;28;20636;-53
2024/03/16 04:25:38;;;;;;;0.10;0.10;;;9.20;99.90;;;;;;10524955;28;20102;-54
2024/03/16 04:30:40;;;;;;;0.10;0.10;;;9.10;99.90;;;;;;10534477;28;20070;-53
2024/03/16 04:35:42;;;;;;;0.10;0.10;;;9.20;99.90;;;;;;10521377;28;20071;-55
2024/03/16 04:40:44;;;;;;;0.10;0.10;;;9.30;99.90;;;;;;10522345;28;20052;-58
2024/03/16 04:45:48;;;;;;;0.10;0.10;;;9.40;99.90;;;;;;10518620;28;20086;-53
2024/03/16 04:50:50;;;;;;;0.10;0.10;;;8.80;99.90;;;;;;10517563;28;20044;-53
2024/03/16 04:55:53;;;;;;;0.10;0.10;;;9.90;99.90;;;;;;10516820;28;20934;-55
2024/03/16 05:00:55;;;;;;;;;;;10.10;99.90;;;;;;10511005;28;20060;-56
2024/03/16 05:05:57;;;;;;;0.10;0.10;;;10.30;99.90;;;;;;10529911;28;19928;-52
2024/03/16 05:10:59;;;;;;;0.10;0.10;;;10.10;99.90;;;;;;10547082;27;20083;-53
2024/03/16 05:16:06;;;;;;;0.10;0.10;;;9.60;99.90;;;;;;10511256;28;20171;-54
2024/03/16 05:21:08;;;;;;;0.10;0.10;;;9.60;99.90;;;;;;10522437;28;20672;-53
2024/03/16 05:26:11;;;;;;;0.10;0.10;;;9.30;99.90;;;;;;10492281;28;20139;-55
2024/03/16 05:31:13;;;;;;;0.10;0.10;;;9.40;99.90;;;;;;10515565;28;20044;-55
2024/03/16 05:36:16;;;;;;;0.10;0.10;;;9.40;99.90;;;;;;10490605;28;20194;-55
2024/03/16 05:41:18;;;;;;;0.10;0.10;;;9.60;99.90;;;;;;10487473;28;20055;-55
2024/03/16 05:46:20;;;;;;;0.97;0.93;;;9.60;99.90;;;;;;10492492;28;20063;-56
2024/03/16 05:51:23;;;;;;;0.10;0.10;;;10.00;99.90;;;;;;10488458;28;20118;-56
2024/03/16 05:56:25;;;;;;;0.10;0.10;;;9.60;99.90;;;;;;10488146;28;21337;-53
2024/03/16 06:01:27;;;;;;;0.10;0.10;;;9.50;99.90;;;;;;10487377;28;20064;-54
2024/03/16 06:06:31;;;;;;;0.20;0.20;;;9.60;99.90;;;;;;10484088;28;20499;-53
2024/03/16 06:11:34;;;;;;;0.10;0.10;;;9.80;99.90;;;;;;10514894;28;20063;-53
2024/03/16 06:16:36;;;;;;;0.20;0.20;;;9.70;99.90;;;;;;10489019;28;20067;-53
2024/03/16 06:21:38;;;;;;;0.10;0.10;;;9.50;99.90;;;;;;10487375;28;20051;-54
2024/03/16 06:26:41;;;;;;;0.45;0.45;;;9.90;99.90;;;;;;10482295;28;20575;-56
2024/03/16 06:31:44;;;;;;;0.10;0.10;;;9.40;99.90;;;;;;10484837;28;20550;-57
2024/03/16 06:36:46;;;;;;;0.73;0.73;;;11.00;99.90;;;;;;10481595;28;20707;-55
2024/03/16 06:41:49;;;;;;;0.47;0.47;;;12.10;99.90;;;;;;10481762;28;20052;-53
2024/03/16 06:46:51;;;;;;;0.10;0.10;;;10.70;99.90;;;;;;10484999;28;20056;-51
2024/03/16 06:51:54;;;;;;;0.10;0.10;;;10.60;99.90;;;;;;10484280;28;20068;-54
2024/03/16 06:56:56;;;;;;;0.10;0.10;;;11.80;99.90;;;;;;10483796;28;20052;-54
2024/03/16 07:01:58;;;;;;;0.10;0.10;;;12.60;99.90;;;;;;10484342;28;20040;-55
2024/03/16 07:07:00;;;;;;;0.20;0.20;;;12.80;99.90;;;;;;10512147;28;20044;-56
2024/03/16 07:12:02;;;;;;;0.20;0.20;;;12.70;99.90;;;;;;10493377;28;20048;-55
2024/03/16 07:17:04;;;;;;;0.10;0.10;;;13.30;99.90;;;;;;10492868;28;20114;-56
2024/03/16 07:22:07;;;;;;;0.00;0.00;;;12.70;99.90;;;;;;10488593;28;20040;-55
2024/03/16 07:27:09;;;;;;;;;;;11.90;99.90;;;;;;10485774;28;20067;-55
2024/03/16 07:32:12;;;;;;;0.20;0.20;;;12.20;99.90;;;;;;10496717;28;19931;-56
2024/03/16 07:37:15;;;;;;;0.03;0.03;;;12.20;99.90;;;;;;10482339;28;20044;-55
2024/03/16 07:42:18;;;;;;;0.10;0.10;;;11.70;99.90;;;;;;10511269;28;20495;-53
2024/03/16 07:47:20;;;;;;;0.10;0.10;;;10.30;99.90;;;;;;10481060;28;20883;-53
2024/03/16 07:52:22;;;;;;;0.10;0.10;;;11.00;99.90;;;;;;10478373;28;20126;-54
2024/03/16 07:57:25;;;;;;;3.22;1.55;;;10.80;99.90;;;;;;10480652;28;20056;-54
2024/03/16 08:02:27;;;;;;;0.10;0.10;;;10.20;99.90;;;;;;10478396;28;20110;-53
2024/03/16 08:07:29;;;;;;;0.00;0.00;;;10.00;99.90;;;;;;10487074;28;20056;-53
2024/03/16 08:12:32;;;;;;;0.03;0.03;;;10.20;99.90;;;;;;10493900;28;20044;-55
2024/03/16 08:17:34;;;;;;;0.10;0.10;;;11.20;99.90;;;;;;10480015;28;20055;-54
2024/03/16 08:22:36;;;;;;;0.10;0.10;;;12.10;99.90;;;;;;10479999;28;20486;-56
2024/03/16 08:27:38;;;;;;;0.10;0.10;;;11.80;99.90;;;;;;10482048;28;20816;-56
2024/03/16 08:32:42;;;;;;;0.10;0.10;;;11.50;99.90;;;;;;10478739;28;20067;-54
2024/03/16 08:37:44;;;;;;;;;;;11.00;99.90;;;;;;10479882;28;20267;-52
2024/03/16 08:42:48;;;;;;;0.10;0.10;;;12.00;99.90;;;;;;10492606;28;19927;-55
2024/03/16 08:47:50;;;;;;;0.10;0.10;;;11.70;99.90;;;;;;10475430;28;20052;-55
2024/03/16 08:52:52;;;;;;;0.10;0.10;;;11.40;99.90;;;;;;10473452;28;20165;-52
2024/03/16 08:57:55;;;;;;;0.00;0.00;;;12.50;99.90;;;;;;10475748;28;20060;-54
2024/03/16 09:02:57;;;;;;;0.10;0.10;;;13.00;99.90;;;;;;10484755;28;20047;-54
2024/03/16 09:07:59;;;;;;;0.10;0.10;;;13.40;99.90;;;;;;10489768;28;20062;-56
2024/03/16 09:13:01;;;;;;;0.10;0.10;;;12.20;99.90;;;;;;10486718;28;20051;-53
2024/03/16 09:18:04;;;;;;;0.10;0.10;;;11.60;99.90;;;;;;10492887;28;20070;-55
2024/03/16 09:23:06;;;;;;;0.10;0.10;;;11.90;99.90;;;;;;10526495;28;20163;-56
2024/03/16 09:28:08;;;;;;;0.10;0.10;;;11.80;99.90;;;;;;10489265;28;20910;-50
2024/03/16 09:33:10;;;;;;;0.10;0.10;;;11.00;99.90;;;;;;10483435;28;20118;-50
2024/03/16 09:38:12;;;;;;;0.63;0.63;;;12.30;99.90;;;;;;10485543;28;20180;-51
2024/03/16 09:43:14;;;;;;;0.07;0.07;;;12.40;99.90;;;;;;10486598;28;20055;-52
2024/03/16 09:48:16;;;;;;;0.00;0.00;;;11.90;99.90;;;;;;10485514;28;20417;-54
2024/03/16 09:53:19;;;;;;;0.10;0.10;;;12.70;99.90;;;;;;10484309;28;20533;-54
2024/03/16 09:58:21;;;;;;;0.10;0.10;;;12.70;99.90;;;;;;10482941;28;20079;-55
2024/03/16 10:03:23;;;;;;;0.20;0.20;;;12.60;99.90;;;;;;10485906;28;20531;-55
2024/03/16 10:08:25;;;;;;;0.10;0.10;;;12.70;99.90;;;;;;10479297;28;20056;-55
2024/03/16 10:13:27;;;;;;;0.10;0.10;;;12.80;99.90;;;;;;10481999;28;20115;-52
2024/03/16 10:18:29;;;;;;;0.23;0.23;;;12.60;99.90;;;;;;10483225;28;20059;-54
2024/03/16 10:23:31;;;;;;;0.10;0.10;;;12.50;99.90;;;;;;10485230;28;20528;-55
2024/03/16 10:28:33;;;;;;;3.70;0.53;;;13.50;99.90;;;;;;10483032;28;20059;-57
2024/03/16 10:33:38;;;;;;;4.97;0.90;;;13.10;99.90;;;;;;10481770;28;20051;-57
2024/03/16 10:38:42;;;;;;;9.18;1.10;;;13.00;99.90;;;;;;10497785;28;20602;-54
2024/03/16 10:43:44;;;;;;;4.55;1.25;;;13.00;99.90;;;;;;10477505;28;20693;-53
2024/03/16 10:48:48;;;;;;;7.90;1.13;;;13.20;99.90;;;;;;10482767;28;20087;-55
2024/03/16 10:53:51;;;;;;;3.45;1.02;;;13.10;99.90;;;;;;10481247;28;20048;-56
2024/03/16 10:58:53;;;;;;;11.75;1.40;;;13.20;99.90;;;;;;10510850;27;20077;-56
2024/03/16 11:04:01;;;;;;;10.40;1.27;;;13.10;99.90;;;;;;10481950;28;20056;-52
2024/03/16 11:09:07;;;;;;;5.28;0.98;;;13.00;99.90;;;;;;10479164;28;20450;-56
2024/03/16 11:14:11;;;;;;;6.82;1.48;;;14.40;99.90;;;;;;10480331;28;20938;-56
2024/03/16 11:19:17;;;;;;;16.65;1.70;;;13.80;99.90;;;;;;10476182;28;20051;-54
2024/03/16 11:24:20;;;;;;;4.65;0.95;;;13.60;99.90;;;;;;10480609;28;20052;-55
2024/03/16 11:29:25;;;;;;;5.90;1.40;;;14.40;99.90;;;;;;10482501;28;20048;-57
2024/03/16 11:34:27;;;;;;;10.55;1.20;;;13.40;99.90;;;;;;10494472;28;20056;-54
2024/03/16 11:39:30;;;;;;;10.07;1.80;;;13.30;99.90;;;;;;10482542;28;20112;-55
2024/03/16 11:44:34;;;;;;;10.57;1.25;;;12.80;99.90;;;;;;10482648;28;20059;-55
2024/03/16 11:49:36;;;;;;;5.85;0.77;;;13.70;99.90;;;;;;10479183;28;20480;-55
2024/03/16 11:54:38;;;;;;;20.45;1.88;;;13.80;99.90;;;;;;10478407;28;20205;-56
2024/03/16 11:59:42;;;;;;;28.27;6.90;;;12.80;99.90;;;;;;10480044;28;20055;-55
2024/03/16 12:04:44;;;;;;;2.75;0.88;;;12.30;99.90;;;;;;10479876;28;21017;-56
2024/03/16 12:09:48;;;;;;;10.50;1.20;;;12.90;99.90;;;;;;10478082;28;23021;-55
2024/03/16 12:15:15;;;;;;;11.98;1.15;;;13.70;99.90;;;;;;10477732;28;20044;-55
2024/03/16 12:20:17;;;;;;;5.53;1.17;;;14.10;99.90;;;;;;10492943;28;20586;-54
2024/03/16 12:25:25;;;;;;;6.70;1.00;;;13.70;99.90;;;;;;10472542;28;20040;-55
2024/03/16 12:30:28;;;;;;;3.65;0.95;;;13.20;99.90;;;;;;10493852;28;20055;-54
2024/03/16 12:35:32;;;;;;;2.85;0.88;;;14.00;99.90;;;;;;10480438;28;20183;-56
2024/03/16 12:40:35;;;;;;;3.83;1.05;;;14.60;99.90;;;;;;10487318;28;20151;-54
2024/03/16 12:45:37;;;;;;;5.13;0.90;;;15.50;99.90;;;;;;10481369;28;20145;-55
2024/03/16 12:50:39;;;;;;;2.27;0.83;;;15.50;99.90;;;;;;10486856;28;20218;-53
2024/03/16 12:55:41;;;;;;;7.43;0.93;;;14.40;99.90;;;;;;10479820;28;20048;-55
2024/03/16 13:00:43;;;;;;;9.13;0.97;;;14.80;99.90;;;;;;10487770;28;20051;-55
2024/03/16 13:05:46;;;;;;;8.63;1.02;;;14.80;99.90;;;;;;10487830;28;20036;-54
2024/03/16 13:10:48;;;;;;;5.32;1.08;;;13.90;99.90;;;;;;10491874;28;20739;-52
2024/03/16 13:15:50;;;;;;;4.97;0.70;;;13.60;99.90;;;;;;10489379;28;20051;-50
2024/03/16 13:20:52;;;;;;;5.33;1.17;;;14.00;99.90;;;;;;10482965;28;20149;-55
2024/03/16 13:25:55;;;;;;;8.57;1.30;;;14.40;99.90;;;;;;10492257;28;20762;-57
2024/03/16 13:30:57;;;;;;;;;;;15.00;99.90;;;;;;10501582;28;20086;-53
2024/03/16 13:35:59;;;;;;;6.32;0.90;;;14.80;99.90;;;;;;10500185;28;20350;-52
2024/03/16 13:41:02;;;;;;;4.43;0.87;;;14.40;99.90;;;;;;10482089;28;20123;-53
2024/03/16 13:46:04;;;;;;;4.07;0.95;;;15.00;99.90;;;;;;10487025;28;20477;-55
2024/03/16 13:51:06;;;;;;;3.13;0.70;;;15.00;99.90;;;;;;10487536;28;20109;-54
2024/03/16 13:56:08;;;;;;;8.40;1.17;;;15.50;97.50;;;;;;10484854;28;20526;-55
2024/03/16 14:01:10;;;;;;;4.40;0.90;;;15.50;99.90;;;;;;10488230;28;20826;-54
2024/03/16 14:06:13;;;;;;;8.25;0.88;;;15.80;99.30;;;;;;10486344;28;20047;-53
2024/03/16 14:11:15;;;;;;;10.27;1.30;;;17.00;99.90;;;;;;10485797;28;20451;-54
2024/03/16 14:16:17;;;;;;;8.27;0.95;;;16.80;99.90;;;;;;10478023;28;20048;-54
2024/03/16 14:21:19;;;;;;;7.93;1.00;;;17.00;97.80;;;;;;10485559;28;20722;-54
2024/03/16 14:26:21;;;;;;;8.17;1.03;;;16.60;99.90;;;;;;10479509;28;20481;-55
2024/03/16 14:31:23;;;;;;;13.13;2.20;;;17.00;98.40;;;;;;10485163;28;20478;-54
2024/03/16 14:36:26;;;;;;;4.95;1.00;;;18.00;99.90;;;;;;10481427;28;20055;-54
2024/03/16 14:41:28;;;;;;;5.47;1.10;;;19.00;94.40;;;;;;10484686;28;20162;-57
2024/03/16 14:46:30;;;;;;;7.70;0.88;;;18.20;94.00;;;;;;10483290;28;20047;-54
2024/03/16 14:51:33;;;;;;;6.40;0.80;;;18.50;92.00;;;;;;10484128;28;20078;-56
2024/03/16 14:56:35;;;;;;;4.78;1.00;;;19.40;94.10;;;;;;10511405;28;20511;-57
2024/03/16 15:01:38;;;;;;;11.55;1.48;;;20.10;94.20;;;;;;10480394;28;20056;-54
2024/03/16 15:06:40;;;;;;;8.25;1.13;;;19.80;78.20;;;;;;10482429;28;20044;-57
2024/03/16 15:11:42;;;;;;;8.95;0.80;;;19.30;95.00;;;;;;10477507;28;20839;-56
2024/03/16 15:16:45;;;;;;;3.08;0.60;;;19.30;95.50;;;;;;10479468;28;20539;-55
2024/03/16 15:21:48;;;;;;;7.65;1.20;;;18.30;99.90;;;;;;10481596;28;20063;-55
2024/03/16 15:26:56;;;;;;;3.83;0.93;;;18.90;99.90;;;;;;10480471;28;20063;-55
2024/03/16 15:31:58;;;;;;;5.18;0.85;;;21.10;99.90;;;;;;10479998;28;20423;-56
2024/03/16 15:37:00;;;;;;;4.25;0.80;;;20.90;95.80;;;;;;10493020;28;20048;-56
2024/03/16 15:42:03;;;;;;;3.95;0.70;;;20.70;99.90;;;;;;10474189;28;20051;-54
2024/03/16 15:47:06;;;;;;;5.65;1.08;;;21.30;99.90;;;;;;10475866;28;20905;-57
2024/03/16 15:52:08;;;;;;;5.05;1.23;;;21.40;93.60;;;;;;10481741;28;20072;-56
2024/03/16 15:57:10;;;;;;;6.00;1.15;;;21.60;99.90;;;;;;10478455;28;20059;-56
2024/03/16 16:02:12;;;;;;;7.93;1.08;;;21.70;78.50;;;;;;10478935;28;20768;-55
2024/03/16 16:07:14;;;;;;;6.82;2.08;;;21.60;99.90;;;;;;10486161;28;20047;-56
2024/03/16 16:12:16;;;;;;;7.78;1.00;;;22.10;99.90;;;;;;10493357;28;20049;-57
2024/03/16 16:17:19;;;;;;;7.05;1.20;;;22.50;98.10;;;;;;10482035;28;20052;-58
2024/03/16 16:22:21;;;;;;;5.32;1.58;;;22.60;99.90;;;;;;10508775;28;20060;-53
2024/03/16 16:27:24;;;;;;;5.38;1.50;;;23.20;99.90;;;;;;10483968;28;20204;-58
2024/03/16 16:32:25;;;;;;;;;;;23.10;96.40;;;;;;10477362;28;20359;-57
2024/03/16 16:37:27;;;;;;;4.87;0.90;;;22.60;77.70;;;;;;10494082;28;19919;-56
2024/03/16 16:42:31;;;;;;;5.20;1.13;;;21.80;78.40;;;;;;10468771;28;20164;-55
2024/03/16 16:47:33;;;;;;;2.85;0.82;;;19.80;99.90;;;;;;10477856;28;20444;-56
2024/03/16 16:52:37;;;;;;;6.50;1.00;;;19.60;93.90;;;;;;10473870;28;21128;-56
2024/03/16 16:57:40;;;;;;;6.18;1.20;;;19.30;94.60;;;;;;10472126;28;20139;-55
2024/03/16 17:02:42;;;;;;;6.13;1.10;;;20.20;99.90;;;;;;10478298;28;20052;-54
2024/03/16 17:07:44;;;;;;;;;;;22.60;99.90;;;;;;10474649;28;20065;-54
2024/03/16 17:12:46;;;;;;;8.70;1.07;;;20.80;72.10;;;;;;10485869;28;19928;-57
2024/03/16 17:17:48;;;;;;;13.95;1.45;;;19.00;99.90;;;;;;10478577;28;20044;-55
2024/03/16 17:22:51;;;;;;;4.38;1.38;;;17.60;90.90;;;;;;10494713;28;20048;-55
2024/03/16 17:27:53;;;;;;;11.52;1.52;;;17.10;99.90;;;;;;10487887;28;20055;-54
2024/03/16 17:32:55;;;;;;;3.60;1.17;;;16.80;99.90;;;;;;10479607;28;20090;-55
2024/03/16 17:38:03;;;;;;;8.38;1.63;;;16.90;99.90;;;;;;10480941;28;20060;-54
2024/03/16 17:43:05;;;;;;;7.85;2.10;;;19.20;99.90;;;;;;10483027;28;20432;-54
2024/03/16 17:48:07;;;;;;;14.38;7.50;;;21.50;99.90;;;;;;10478546;28;20163;-55
2024/03/16 17:53:09;;;;;;;;;;;21.80;99.90;;;;;;10474872;28;20043;-55
2024/03/16 17:58:14;;;;;;;13.90;6.20;;;22.10;99.90;;;;;;10490868;28;19928;-55
2024/03/16 18:03:16;;;;;;;14.02;6.35;;;22.10;99.90;;;;;;10473444;28;20462;-55
2024/03/16 18:08:18;;;;;;;9.20;2.45;;;22.00;99.90;;;;;;10483526;28;20056;-56
2024/03/16 18:13:20;;;;;;;;;;;22.00;99.90;;;;;;10476491;28;20056;-55
2024/03/16 18:18:23;;;;;;;15.25;3.30;;;21.80;99.90;;;;;;10492134;28;20788;-54
2024/03/16 18:23:27;;;;;;;10.10;3.55;;;18.00;99.90;;;;;;10479192;28;20047;-54
2024/03/16 18:28:30;;;;;;;10.45;3.72;;;19.70;99.90;;;;;;10492311;28;20161;-55
2024/03/16 18:33:32;;;;;;;11.25;3.38;;;20.60;99.90;;;;;;10494136;28;20450;-57
2024/03/16 18:38:36;;;;;;;;;;;20.70;99.90;;;;;;10492740;28;20055;-55
2024/03/16 18:43:38;;;;;;;9.13;2.80;;;20.60;99.90;;;;;;10489987;28;20303;-53
2024/03/16 18:48:40;;;;;;;;;;;20.30;99.90;;;;;;10487381;28;20056;-55
2024/03/16 18:53:44;;;;;;;13.57;5.53;;;20.10;99.90;;;;;;10487319;28;20122;-57
2024/03/16 18:58:46;;;;;;;8.20;3.47;;;19.80;99.90;;;;;;10489223;28;20834;-55
2024/03/16 19:03:48;;;;;;;17.52;8.45;;;19.60;99.90;;;;;;10488607;28;20605;-56
2024/03/16 19:08:51;;;;;;;;;;;19.30;99.90;;;;;;10490636;28;20059;-54
2024/03/16 19:13:54;;;;;;;22.42;10.25;;;19.60;99.90;;;;;;10490539;28;19924;-53
2024/03/16 19:18:59;;;;;;;;;;;19.90;99.90;;;;;;10484842;28;20056;-56
2024/03/16 19:24:03;;;;;;;19.25;9.63;;;20.00;99.90;;;;;;10491318;28;19920;-55
2024/03/16 19:29:05;;;;;;;18.40;9.40;;;19.90;99.90;;;;;;10489397;28;20076;-55
2024/03/16 19:34:07;;;;;;;20.85;9.75;;;19.80;99.90;;;;;;10489374;28;20068;-54
2024/03/16 19:39:11;;;;;;;16.38;9.23;;;19.90;99.90;;;;;;10489893;28;20048;-57
2024/03/16 19:44:13;;;;;;;21.70;10.35;;;19.80;99.90;;;;;;10484670;28;20048;-55
2024/03/16 19:49:16;;;;;;;20.10;11.15;;;19.70;99.90;;;;;;10488982;28;20176;-56
2024/03/16 19:54:20;;;;;;;19.80;11.05;;;19.60;99.90;;;;;;10486639;28;20183;-56
2024/03/16 19:59:22;;;;;;;26.42;11.20;;;19.50;99.90;;;;;;10488610;28;20048;-55
2024/03/16 20:04:24;;;;;;;21.05;11.25;;;19.40;99.90;;;;;;10487674;28;20044;-56
2024/03/16 20:09:28;;;;;;;21.75;11.10;;;19.40;99.90;;;;;;10483413;28;20059;-55
2024/03/16 20:14:30;;;;;;;20.83;10.50;;;19.30;99.90;;;;;;10485782;28;20100;-55
2024/03/16 20:19:32;;;;;;;26.92;12.63;;;19.20;99.90;;;;;;10484582;28;20364;-54
2024/03/16 20:24:35;;;;;;;24.42;12.15;;;19.10;99.90;;;;;;10495576;28;20525;-55
2024/03/16 20:29:37;;;;;;;21.55;11.15;;;19.00;99.90;;;;;;10491236;28;20104;-56
2024/03/16 20:34:39;;;;;;;21.85;11.63;;;19.00;99.90;;;;;;10490138;28;20691;-54
2024/03/16 20:39:43;;;;;;;21.25;10.55;;;18.90;99.90;;;;;;10489410;28;20048;-57
2024/03/16 20:44:48;;;;;;;24.60;11.98;;;18.90;99.90;;;;;;10493007;28;20120;-54
2024/03/16 20:49:51;;;;;;;19.95;11.00;;;18.80;99.90;;;;;;10490831;28;20062;-56
2024/03/16 20:54:54;;;;;;;21.48;9.98;;;18.80;99.90;;;;;;10489411;28;20063;-55
2024/03/16 20:59:56;;;;;;;22.85;11.43;;;18.70;99.90;;;;;;10494089;28;20044;-57
2024/03/16 21:04:58;;;;;;;14.55;9.15;;;18.70;99.90;;;;;;10492290;28;20089;-55
2024/03/16 21:10:03;;;;;;;16.95;9.20;;;18.60;99.90;;;;;;10490006;28;20056;-56
2024/03/16 21:15:09;;;;;;;21.50;10.65;;;18.50;99.90;;;;;;10493807;28;20079;-56
2024/03/16 21:20:14;;;;;;;16.23;9.38;;;18.40;99.90;;;;;;10489477;28;20084;-56
2024/03/16 21:25:18;;;;;;;21.48;11.18;;;18.50;99.90;;;;;;10496715;28;20772;-55
2024/03/16 21:30:20;;;;;;;13.90;7.20;;;17.70;99.90;;;;;;10495635;28;20567;-54
2024/03/16 21:35:23;;;;;;;11.57;5.63;;;16.50;99.90;;;;;;10497200;28;20140;-55
2024/03/16 21:40:27;;;;;;;19.10;6.43;;;16.00;99.90;;;;;;10500596;28;20101;-57
2024/03/16 21:45:29;;;;;;;12.90;5.57;;;15.50;99.90;;;;;;10496627;28;20068;-56
2024/03/16 21:50:32;;;;;;;18.73;9.63;;;15.10;99.90;;;;;;10502450;28;20052;-56
2024/03/16 21:55:35;;;;;;;12.93;6.03;;;15.00;99.90;;;;;;10494757;28;20149;-56
2024/03/16 22:00:37;;;;;;;16.67;8.38;;;15.10;99.90;;;;;;10496845;28;20052;-58
2024/03/16 22:05:39;;;;;;;22.03;7.90;;;15.40;99.90;;;;;;10498707;28;20044;-56
2024/03/16 22:10:45;;;;;;;16.73;8.57;;;15.30;99.90;;;;;;10497392;28;20509;-55
2024/03/16 22:15:48;;;;;;;17.35;7.03;;;15.40;99.90;;;;;;10498021;28;20066;-56
2024/03/16 22:20:50;;;;;;;16.10;4.10;;;15.40;99.90;;;;;;10496986;28;20143;-56
2024/03/16 22:25:54;;;;;;;12.77;6.90;;;15.30;99.90;;;;;;10499041;28;20052;-59
2024/03/16 22:30:56;;;;;;;17.70;5.38;;;15.90;99.90;;;;;;10496224;28;20083;-56
2024/03/16 22:35:58;;;;;;;16.15;7.78;;;17.10;99.90;;;;;;10496774;28;20052;-56
2024/03/16 22:41:01;;;;;;;13.38;6.68;;;17.30;99.90;;;;;;10495318;28;20047;-56
2024/03/16 22:46:05;;;;;;;14.55;6.32;;;17.40;99.90;;;;;;10494965;28;20604;-53
2024/03/16 22:51:07;;;;;;;11.32;6.70;;;17.50;99.90;;;;;;10501735;28;20044;-55
2024/03/16 22:56:11;;;;;;;12.07;5.57;;;17.50;99.90;;;;;;10484088;28;20052;-55
2024/03/16 23:01:13;;;;;;;11.35;6.30;;;17.40;99.90;;;;;;10494493;28;20044;-56
2024/03/16 23:06:17;;;;;;;;;;;17.40;99.90;;;;;;10497105;28;20048;-56
2024/03/16 23:11:20;;;;;;;12.48;5.88;;;17.50;99.90;;;;;;10489345;28;19924;-55
2024/03/16 23:16:25;;;;;;;9.48;5.50;;;17.40;99.90;;;;;;10492694;28;20040;-54
2024/03/16 23:21:27;;;;;;;6.25;3.35;;;17.40;99.90;;;;;;10491860;28;20063;-56
2024/03/16 23:26:32;;;;;;;8.65;4.82;;;17.50;99.90;;;;;;10491999;28;20056;-56
2024/03/16 23:31:34;;;;;;;11.25;5.80;;;17.30;99.90;;;;;;10488804;28;20086;-55
2024/03/16 23:36:37;;;;;;;9.15;3.60;;;17.40;99.90;;;;;;10490951;28;20139;-56
2024/03/16 23:41:41;;;;;;;8.23;3.83;;;17.50;99.90;;;;;;10494663;28;20056;-55
2024/03/16 23:46:43;;;;;;;11.00;5.13;;;17.50;99.90;;;;;;10499581;28;20487;-54
2024/03/16 23:51:45;;;;;;;9.52;3.58;;;17.50;99.90;;;;;;10498853;28;20518;-56
2024/03/16 23:56:48;;;;;;;;;;;17.70;99.90;;;;;;10498025;28;20167;-54
